Flight Track Log - Related Links

Times and Time Zones

All times are in EDT time to prevent confusion due to time zone crossing. See the N960DL flight status page for this flight to view local times or setup timezone preferences in your user account.

Time Position Orientation Groundspeed Altitude Reporting Facility
EDT Latitude Longitude Course Direction KTS MPH feet Rate Location/Type
Sun 11:08:00 PM 44.8667 -93.1667 117° Southeast 165 190 2,400  Level Minneapolis TRACON
Sun 11:08:25 PM 44.8700 -93.1342 82° East 183 211 2,900 2,163 Climbing Minneapolis Center
Sun 11:09:26 PM 44.8561 -93.0358 101° East 252 290 5,500 2,508 Climbing Minneapolis Center
Sun 11:10:00 PM 44.7830 -92.7703 115° Southeast  Level Estimated
Sun 11:10:27 PM 44.8403 -92.9319 102° East 269 310 8,000  Level Minneapolis Center
Sun 11:11:00 PM 44.7496 -92.6202 113° Southeast  Level Estimated
Sun 11:11:28 PM 44.8094 -92.8342 114° Southeast 277 319 10,700  Level Minneapolis Center
Sun 11:12:00 PM 44.7161 -92.4702 125° Southeast  Level Estimated
Sun 11:12:30 PM 44.7636 -92.7197 119° Southeast 340 391 12,100  Level Minneapolis Center
Sun 11:13:00 PM 44.6823 -92.3204 117° Southeast  Level Estimated
Sun 11:13:31 PM 44.7108 -92.5844 119° Southeast 393 452 14,600  Level Minneapolis Center
Sun 11:14:32 PM 44.6572 -92.4458 118° Southeast 405 466 17,400 2,459 Climbing Minneapolis Center
Sun 11:15:33 PM 44.6011 -92.3044 119° Southeast 413 475 19,600 2,066 Climbing Minneapolis Center
Sun 11:16:34 PM 44.5408 -92.1544 119° Southeast 436 502 21,600 2,066 Climbing Minneapolis Center
Sun 11:17:35 PM 44.4661 -91.9681 119° Southeast 456 525 23,800 2,016 Climbing Minneapolis Center
Sun 11:18:36 PM 44.4039 -91.8094 119° Southeast 465 535 25,700 2,000 Climbing Minneapolis Center
Sun 11:19:38 PM 44.3400 -91.6511 119° Southeast 468 539 27,900 2,195 Climbing Minneapolis Center
Sun 11:20:39 PM 44.2781 -91.4972 119° Southeast 461 531 30,200 2,016 Climbing Minneapolis Center
Sun 11:21:40 PM 44.2175 -91.3478 119° Southeast 449 517 32,000 1,377 Climbing Minneapolis Center
Sun 11:22:41 PM 44.1619 -91.2131 120° Southeast 441 507 33,000 885 Climbing Minneapolis Center
Sun 11:23:42 PM 44.1008 -91.0678 120° Southeast 439 505 33,800 787 Climbing Minneapolis Center
Sun 11:24:43 PM 44.0264 -90.8872 120° Southeast 448 516 34,600 492 Climbing Minneapolis Center
Sun 11:25:44 PM 43.9625 -90.7369 121° Southeast 453 521 34,800 -421 Climbing Minneapolis Center
Sun 11:26:37 PM 43.9117 -90.6164 120° Southeast 457 526 33,800 -1,737 Descending Chicago Center
Sun 11:27:38 PM 43.8525 -90.4750 120° Southeast 431 496 31,500 -1,388 Descending Chicago Center
Sun 11:28:38 PM 43.7919 -90.3322 120° Southeast 431 496 31,000 -248 Descending Chicago Center
Sun 11:29:39 PM 43.7197 -90.1603 120° Southeast 434 499 31,000  Level Chicago Center
Sun 11:30:40 PM 43.6572 -90.0147 121° Southeast 440 506 31,000  Level Chicago Center
Sun 11:31:41 PM 43.5956 -89.8708 121° Southeast 436 502 31,000  Level Chicago Center
Sun 11:32:42 PM 43.5375 -89.7250 119° Southeast 435 501 31,000  Level Chicago Center
Sun 11:33:43 PM 43.4958 -89.5700 110° East 429 494 31,000  Level Chicago Center
Sun 11:34:44 PM 43.4528 -89.4169 111° Southeast 428 493 31,000  Level Chicago Center
Sun 11:35:45 PM 43.4072 -89.2636 112° Southeast 433 498 31,000  Level Chicago Center
Sun 11:36:46 PM 43.3622 -89.1097 112° Southeast 434 499 31,000  Level Chicago Center
Sun 11:37:46 PM 43.3383 -88.9492 102° East 435 501 31,000  Level Chicago Center
Sun 11:38:47 PM 43.3264 -88.7856 96° East 434 499 31,000  Level Chicago Center
Sun 11:39:48 PM 43.3131 -88.6219 96° East 436 502 31,000  Level Chicago Center
Sun 11:40:49 PM 43.2983 -88.4300 96° East 442 509 31,000  Level Chicago Center
Sun 11:41:50 PM 43.2850 -88.2642 96° East 442 509 31,000  Level Chicago Center
Sun 11:42:51 PM 43.2731 -88.0981 96° East 441 507 31,000  Level Chicago Center
Sun 11:43:52 PM 43.2597 -87.9292 96° East 446 513 31,000  Level Chicago Center
Sun 11:44:52 PM 43.2456 -87.7589 96° East 450 518 31,000  Level Chicago Center
Sun 11:45:53 PM 43.2319 -87.5856 96° East 456 525 31,000  Level Chicago Center
Sun 11:46:54 PM 43.2156 -87.4142 97° East 455 524 31,000  Level Chicago Center
Sun 11:47:55 PM 43.2003 -87.2300 96° East 451 519 31,000  Level Chicago Center
Sun 11:48:55 PM 43.1828 -87.0597 98° East 452 520 31,000  Level Chicago Center
Sun 11:49:56 PM 43.1486 -86.8992 106° East 444 511 31,000  Level Chicago Center
Sun 11:50:57 PM 43.1103 -86.7417 108° East 438 504 31,000 -98 Level Chicago Center
Sun 11:51:58 PM 43.0700 -86.5836 109° East 442 509 30,800 -744 Descending Chicago Center
Sun 11:52:58 PM 43.0303 -86.4231 109° East 447 514 29,500 -1,041 Descending Chicago Center
Sun 11:53:59 PM 42.9897 -86.2653 109° East 446 513 28,700 -639 Descending Chicago Center
Sun 11:55:00 PM 42.9492 -86.1100 110° East 444 511 28,200 -590 Descending Chicago Center
Sun 11:56:01 PM 42.9117 -85.9564 108° East 440 506 27,500 -694 Descending Chicago Center
Sun 11:57:01 PM 42.8653 -85.7739 109° East 432 497 26,800 -595 Descending Chicago Center
Sun 11:58:02 PM 42.8272 -85.6231 109° East 426 490 26,300 -545 Descending Chicago Center
Sun 11:59:02 PM 42.7892 -85.4739 109° East 421 484 25,700 -793 Descending Chicago Center
Mon 12:00:03 AM 42.7511 -85.3272 109° East 413 475 24,700 -1,131 Descending Chicago Center
Mon 12:01:04 AM 42.7136 -85.1833 109° East 407 468 23,400 -843 Descending Chicago Center
Mon 12:02:04 AM 42.6775 -85.0436 109° East 396 456 23,000 -545 Descending Chicago Center
Mon 12:03:05 AM 42.6394 -84.9047 110° East 393 452 22,300 -1,279 Descending Chicago Center
Mon 12:04:06 AM 42.6042 -84.7683 109° East 388 447 20,400 -2,281 Descending Chicago Center
Mon 12:05:06 AM 42.5692 -84.6392 110° East 372 428 17,700 -2,132 Descending Chicago Center
Mon 12:06:07 AM 42.5336 -84.5097 110° East 368 423 16,100 -1,686 Descending Chicago Center
Mon 12:07:07 AM 42.5000 -84.3900 111° Southeast 348 400 14,300 -1,785 Descending Chicago Center
Mon 12:08:08 AM 42.4678 -84.2706 110° East 340 391 12,500 -1,686 Descending Chicago Center
Mon 12:09:08 AM 42.4314 -84.1589 114° Southeast 329 379 10,900 -893 Descending Chicago Center
Mon 12:10:09 AM 42.3875 -84.0542 120° Southeast 321 369 10,700 -397 Descending Chicago Center
Mon 12:11:09 AM 42.3364 -83.9658 128° Southeast 300 345 10,100 -1,091 Descending Chicago Center
Mon 12:12:10 AM 42.2856 -83.8922 133° Southeast 276 318 8,500 -1,574 Descending Chicago Center

Login

Don't have an account? Register now (free) for customized features, flight alerts, and more!